createdAt,value
2018-10-17T00:02:19.371Z,17.27
2018-10-17T00:04:46.769Z,16.47
2018-10-17T00:07:14.198Z,18.23
2018-10-17T00:09:41.516Z,16.53
2018-10-17T00:12:08.890Z,23.87
2018-10-17T00:14:36.405Z,17.03
2018-10-17T00:17:03.855Z,21.33
2018-10-17T00:19:31.158Z,17.17
2018-10-17T00:21:58.572Z,15.87
2018-10-17T00:24:25.995Z,15.90
2018-10-17T00:26:53.410Z,15.50
2018-10-17T00:29:20.805Z,14.30
2018-10-17T00:31:48.172Z,14.43
2018-10-17T00:34:15.563Z,14.73
2018-10-17T00:36:42.960Z,15.60
2018-10-17T00:39:11.396Z,14.93
2018-10-17T00:41:38.825Z,15.60
2018-10-17T00:44:06.333Z,15.17
2018-10-17T00:46:33.702Z,15.83
2018-10-17T00:49:01.243Z,15.77
2018-10-17T00:51:28.573Z,14.37
2018-10-17T00:53:56.109Z,14.77
2018-10-17T00:56:23.469Z,15.10
2018-10-17T00:58:56.504Z,15.20
2018-10-17T01:01:23.898Z,15.07
2018-10-17T01:03:51.357Z,15.93
2018-10-17T01:06:18.748Z,15.03
2018-10-17T01:08:46.101Z,14.47
2018-10-17T01:11:13.515Z,14.63
2018-10-17T01:13:40.885Z,14.87
2018-10-17T01:16:08.377Z,14.60
2018-10-17T01:18:35.728Z,14.90
2018-10-17T01:21:03.101Z,14.63
2018-10-17T01:23:30.487Z,14.93
2018-10-17T01:25:57.858Z,16.13
2018-10-17T01:28:25.305Z,15.07
2018-10-17T01:30:52.658Z,16.27
2018-10-17T01:33:20.056Z,13.70
2018-10-17T01:35:47.438Z,13.77
2018-10-17T01:38:14.808Z,13.77
2018-10-17T01:40:42.177Z,14.87
2018-10-17T01:43:09.587Z,14.90
2018-10-17T01:45:37.106Z,15.70
2018-10-17T01:48:04.668Z,14.33
2018-10-17T01:50:32.044Z,14.70
2018-10-17T01:52:59.451Z,14.20
2018-10-17T01:55:26.805Z,14.10
2018-10-17T01:57:54.248Z,14.33
2018-10-17T02:00:21.642Z,14.63
2018-10-17T02:02:49.002Z,14.70
2018-10-17T02:05:16.424Z,14.17
2018-10-17T02:07:43.789Z,14.23
2018-10-17T02:10:11.165Z,14.30
2018-10-17T02:12:38.629Z,14.33
2018-10-17T02:15:06.106Z,14.80
2018-10-17T02:17:33.473Z,14.13
2018-10-17T02:20:00.868Z,13.83
2018-10-17T02:22:28.221Z,15.70
2018-10-17T02:24:55.626Z,13.87
2018-10-17T02:27:23.001Z,14.20
2018-10-17T02:29:50.396Z,14.50
2018-10-17T02:32:17.782Z,14.63
2018-10-17T02:34:50.704Z,19.97
2018-10-17T02:37:18.154Z,16.63
2018-10-17T02:39:45.487Z,13.80
2018-10-17T02:42:12.928Z,15.50
2018-10-17T02:44:40.315Z,14.57
2018-10-17T02:47:07.875Z,15.80
2018-10-17T02:49:35.217Z,14.80
2018-10-17T02:52:02.619Z,14.43
2018-10-17T02:54:29.980Z,15.80
2018-10-17T02:56:57.380Z,18.27
2018-10-17T02:59:24.786Z,19.07
2018-10-17T03:01:52.154Z,18.53
2018-10-17T03:04:19.553Z,21.13
2018-10-17T03:06:46.977Z,20.57
2018-10-17T03:09:14.349Z,17.87
2018-10-17T03:11:41.783Z,16.30
2018-10-17T03:14:09.214Z,15.30
2018-10-17T03:16:36.805Z,15.90
2018-10-17T03:19:04.507Z,15.83
2018-10-17T03:21:31.811Z,16.63
2018-10-17T03:23:59.274Z,17.67
2018-10-17T03:26:26.800Z,16.50
2018-10-17T03:28:54.199Z,15.53
2018-10-17T03:31:21.651Z,14.43
2018-10-17T03:33:49.014Z,14.87
2018-10-17T03:36:16.380Z,17.17
2018-10-17T03:38:43.721Z,15.07
2018-10-17T03:41:11.170Z,14.67
2018-10-17T03:43:38.518Z,14.20
2018-10-17T03:46:05.972Z,14.47
2018-10-17T03:48:33.369Z,14.03
2018-10-17T03:51:00.726Z,15.00
2018-10-17T03:53:28.089Z,14.70
2018-10-17T03:55:55.526Z,13.90
2018-10-17T03:58:22.912Z,14.23
2018-10-17T04:00:50.293Z,14.17
2018-10-17T04:03:17.677Z,13.80
2018-10-17T04:05:45.098Z,13.87
2018-10-17T04:08:12.453Z,14.03
2018-10-17T04:10:39.861Z,14.43
2018-10-17T04:13:07.350Z,13.80
2018-10-17T04:15:34.689Z,15.17
2018-10-17T04:18:02.325Z,13.13
2018-10-17T04:20:29.677Z,14.20
2018-10-17T04:22:57.487Z,13.53
2018-10-17T04:25:25.132Z,14.63
2018-10-17T04:27:53.668Z,15.00
2018-10-17T04:30:21.145Z,14.23
2018-10-17T04:32:48.561Z,13.50
2018-10-17T04:35:15.974Z,13.93
2018-10-17T04:37:43.587Z,14.97
2018-10-17T04:40:11.009Z,14.53
2018-10-17T04:42:38.427Z,15.93
2018-10-17T04:45:06.283Z,15.30
2018-10-17T04:47:33.731Z,15.77
2018-10-17T04:50:01.081Z,15.60
2018-10-17T04:52:28.466Z,14.83
2018-10-17T04:54:55.906Z,15.20
2018-10-17T04:57:23.285Z,14.73
2018-10-17T04:59:50.698Z,14.77
2018-10-17T05:02:18.130Z,14.90
2018-10-17T05:04:45.586Z,13.40
2018-10-17T05:07:12.950Z,15.00
2018-10-17T05:09:40.313Z,13.93
2018-10-17T05:12:07.676Z,14.73
2018-10-17T05:14:35.121Z,14.63
2018-10-17T05:17:02.729Z,14.67
2018-10-17T05:19:30.257Z,14.30
2018-10-17T05:21:57.625Z,14.47
2018-10-17T05:24:25.019Z,14.13
2018-10-17T05:26:52.445Z,14.90
2018-10-17T05:29:19.807Z,14.40
2018-10-17T05:31:47.196Z,13.83
2018-10-17T05:34:14.545Z,14.43
2018-10-17T05:36:41.925Z,13.80
2018-10-17T05:39:09.685Z,13.70
2018-10-17T05:41:37.159Z,14.73
2018-10-17T05:44:04.945Z,14.80
2018-10-17T05:46:32.333Z,13.53
2018-10-17T05:48:59.820Z,14.67
2018-10-17T05:51:27.288Z,14.63
2018-10-17T05:53:54.721Z,14.17
2018-10-17T05:56:22.113Z,14.10
2018-10-17T05:58:49.493Z,15.17
2018-10-17T06:01:17.002Z,14.40
2018-10-17T06:03:44.284Z,14.63
2018-10-17T06:06:11.649Z,15.07
2018-10-17T06:08:39.057Z,15.03
2018-10-17T06:11:06.477Z,15.10
2018-10-17T06:13:33.813Z,15.83
2018-10-17T06:16:01.213Z,14.60
2018-10-17T06:18:28.630Z,14.43
2018-10-17T06:20:56.164Z,16.93
2018-10-17T06:23:23.600Z,15.33
2018-10-17T06:25:51.077Z,14.47
2018-10-17T06:28:18.557Z,14.23
2018-10-17T06:30:45.997Z,15.27
2018-10-17T06:33:13.333Z,14.07
2018-10-17T06:35:40.802Z,14.30
2018-10-17T06:38:08.217Z,13.87
2018-10-17T06:40:35.585Z,13.63
2018-10-17T06:43:02.990Z,14.03
2018-10-17T06:45:30.353Z,14.30
2018-10-17T06:47:57.714Z,13.87
2018-10-17T06:50:25.078Z,14.10
2018-10-17T06:52:52.523Z,14.57
2018-10-17T06:55:19.856Z,13.47
2018-10-17T06:57:47.220Z,14.37
2018-10-17T07:00:14.648Z,14.50
2018-10-17T07:02:42.013Z,14.40
2018-10-17T07:05:10.579Z,15.47
2018-10-17T07:07:37.853Z,16.23
2018-10-17T07:10:05.414Z,13.93
2018-10-17T07:12:32.816Z,14.23
2018-10-17T07:15:00.230Z,12.60
2018-10-17T07:17:27.583Z,13.63
2018-10-17T07:19:54.989Z,15.30
2018-10-17T07:22:22.720Z,14.20
2018-10-17T07:24:50.201Z,14.80
2018-10-17T07:27:17.568Z,14.77
2018-10-17T07:29:45.453Z,13.47
2018-10-17T07:32:12.706Z,14.60
2018-10-17T07:34:40.067Z,14.83
2018-10-17T07:37:07.845Z,16.20
2018-10-17T07:39:35.281Z,15.67
2018-10-17T07:42:02.723Z,15.20
2018-10-17T07:44:30.084Z,15.47
2018-10-17T07:46:57.549Z,14.73
2018-10-17T07:49:24.951Z,14.80
2018-10-17T07:51:52.380Z,14.40
2018-10-17T07:54:19.931Z,14.57
2018-10-17T07:56:47.465Z,15.67
2018-10-17T07:59:14.865Z,14.37
2018-10-17T08:01:42.273Z,14.97
2018-10-17T08:04:09.641Z,15.67
2018-10-17T08:06:37.124Z,15.97
2018-10-17T08:09:06.622Z,16.00
2018-10-17T08:11:34.057Z,16.07
2018-10-17T08:14:01.498Z,15.23
2018-10-17T08:16:28.990Z,13.73
2018-10-17T08:18:56.448Z,14.67
2018-10-17T08:21:23.894Z,14.10
2018-10-17T08:23:51.603Z,13.13
2018-10-17T08:26:18.953Z,12.93
2018-10-17T08:28:46.356Z,14.10
2018-10-17T08:31:13.741Z,14.90
2018-10-17T08:33:41.118Z,14.37
2018-10-17T08:36:08.709Z,14.10
2018-10-17T08:38:35.929Z,14.67
2018-10-17T08:41:03.387Z,14.17
2018-10-17T08:43:30.752Z,13.47
2018-10-17T08:45:58.167Z,13.37
2018-10-17T08:48:25.557Z,13.40
2018-10-17T08:50:53.278Z,13.50
2018-10-17T08:53:20.635Z,12.73
2018-10-17T08:55:48.007Z,11.90
2018-10-17T08:58:15.421Z,12.43
2018-10-17T09:00:42.830Z,12.67
2018-10-17T09:03:10.191Z,12.03
2018-10-17T09:05:37.723Z,12.30
2018-10-17T09:08:05.481Z,11.77
2018-10-17T09:10:32.797Z,10.77
2018-10-17T09:13:00.209Z,10.67
2018-10-17T09:15:27.561Z,10.53
2018-10-17T09:17:55.030Z,10.40
2018-10-17T09:20:22.959Z,9.97
2018-10-17T09:22:49.957Z,10.93
2018-10-17T09:25:18.016Z,10.17
2018-10-17T09:27:45.444Z,10.20
2018-10-17T09:30:13.019Z,10.47
2018-10-17T09:32:40.489Z,12.00
2018-10-17T09:35:08.805Z,10.83
2018-10-17T09:37:36.431Z,10.83
2018-10-17T09:40:03.856Z,11.23
2018-10-17T09:42:32.497Z,10.90
2018-10-17T09:44:59.913Z,10.10
2018-10-17T09:47:27.272Z,10.80
2018-10-17T09:49:54.705Z,10.43
2018-10-17T09:52:22.205Z,10.93
2018-10-17T09:54:49.572Z,10.67
2018-10-17T09:57:16.998Z,11.70
2018-10-17T09:59:44.372Z,10.83
2018-10-17T10:02:11.739Z,9.67
2018-10-17T10:04:39.141Z,9.90
2018-10-17T10:07:06.608Z,10.43
2018-10-17T10:09:34.033Z,11.33
2018-10-17T10:12:01.477Z,10.73
2018-10-17T10:14:28.825Z,10.40
2018-10-17T10:16:56.209Z,10.43
2018-10-17T10:19:23.615Z,10.73
2018-10-17T10:21:51.060Z,10.37
2018-10-17T10:24:18.426Z,9.47
2018-10-17T10:26:45.829Z,9.77
2018-10-17T10:29:13.203Z,10.10
2018-10-17T10:31:40.634Z,10.43
2018-10-17T10:34:08.096Z,9.90
2018-10-17T10:36:35.505Z,9.60
2018-10-17T10:39:03.435Z,9.83
2018-10-17T10:41:30.841Z,9.63
2018-10-17T10:43:58.248Z,10.33
2018-10-17T10:46:25.710Z,10.07
2018-10-17T10:48:53.145Z,10.03
2018-10-17T10:51:20.571Z,9.63
2018-10-17T10:53:47.894Z,9.63
2018-10-17T10:56:15.362Z,9.80
2018-10-17T10:58:42.810Z,9.70
2018-10-17T11:01:10.173Z,9.77
2018-10-17T11:03:37.734Z,9.27
2018-10-17T11:06:05.185Z,10.00
2018-10-17T11:08:32.609Z,9.80
2018-10-17T11:11:00.055Z,9.20
2018-10-17T11:13:27.424Z,9.47
2018-10-17T11:15:54.841Z,9.53
2018-10-17T11:18:22.261Z,10.23
2018-10-17T11:20:49.648Z,10.00
2018-10-17T11:23:17.176Z,10.53
2018-10-17T11:25:44.448Z,9.07
2018-10-17T11:28:11.851Z,9.17
2018-10-17T11:30:39.193Z,9.30
2018-10-17T11:33:06.579Z,9.63
2018-10-17T11:35:33.943Z,10.17
2018-10-17T11:38:01.370Z,9.23
2018-10-17T11:40:28.839Z,9.03
2018-10-17T11:42:56.192Z,8.43
2018-10-17T11:45:23.616Z,9.03
2018-10-17T11:47:51.031Z,9.20
2018-10-17T11:50:18.395Z,8.30
2018-10-17T11:52:45.742Z,10.17
2018-10-17T11:55:13.144Z,9.57
2018-10-17T11:57:40.504Z,9.70
2018-10-17T12:00:08.796Z,9.63
2018-10-17T12:02:36.204Z,10.53
2018-10-17T12:05:03.951Z,10.03
2018-10-17T12:07:31.061Z,8.83
2018-10-17T12:09:58.440Z,9.00
2018-10-17T12:12:33.314Z,8.70
2018-10-17T12:15:00.942Z,8.80
2018-10-17T12:17:28.321Z,9.67
2018-10-17T12:19:55.903Z,9.23
2018-10-17T12:22:23.345Z,8.93
2018-10-17T12:24:50.739Z,9.90
2018-10-17T12:27:18.193Z,10.10
2018-10-17T12:29:45.798Z,9.50
2018-10-17T12:32:13.276Z,9.27
2018-10-17T12:34:40.635Z,10.17
2018-10-17T12:37:08.393Z,9.60
2018-10-17T12:39:35.985Z,9.43
2018-10-17T12:42:03.393Z,9.73
2018-10-17T12:44:31.397Z,10.13
2018-10-17T12:46:59.882Z,10.37
2018-10-17T12:49:27.454Z,10.03
2018-10-17T12:51:54.897Z,9.43
2018-10-17T12:54:22.259Z,8.97
2018-10-17T12:56:49.629Z,9.33
2018-10-17T12:59:17.173Z,10.13
2018-10-17T13:01:44.498Z,9.43
2018-10-17T13:04:11.881Z,9.83
2018-10-17T13:06:39.344Z,9.87
2018-10-17T13:09:08.495Z,10.17
2018-10-17T13:11:35.996Z,9.63
2018-10-17T13:14:04.020Z,9.33
2018-10-17T13:16:31.401Z,9.67
2018-10-17T13:18:58.769Z,9.80
2018-10-17T13:21:26.197Z,8.93
2018-10-17T13:23:53.583Z,9.47
2018-10-17T13:26:20.951Z,9.80
2018-10-17T13:28:48.333Z,9.60
2018-10-17T13:31:15.728Z,9.53
2018-10-17T13:33:43.215Z,9.73
2018-10-17T13:36:10.604Z,9.30
2018-10-17T13:38:38.069Z,8.83
2018-10-17T13:41:05.521Z,9.20
2018-10-17T13:43:32.939Z,9.87
2018-10-17T13:46:00.359Z,9.53
2018-10-17T13:48:27.685Z,9.47
2018-10-17T13:50:55.126Z,9.93
2018-10-17T13:53:22.513Z,9.30
2018-10-17T13:55:49.898Z,10.50
2018-10-17T13:58:17.318Z,9.50
2018-10-17T14:00:44.702Z,9.93
2018-10-17T14:03:12.065Z,9.57
2018-10-17T14:05:39.475Z,9.00
2018-10-17T14:08:06.892Z,10.10
2018-10-17T14:10:34.272Z,9.20
2018-10-17T14:13:01.761Z,9.80
2018-10-17T14:15:29.356Z,8.80
2018-10-17T14:17:56.761Z,9.67
2018-10-17T14:20:24.165Z,9.77
2018-10-17T14:22:51.526Z,9.37
2018-10-17T14:25:19.002Z,9.87
2018-10-17T14:27:46.662Z,9.20
2018-10-17T14:30:14.225Z,9.73
2018-10-17T14:32:41.985Z,9.87
2018-10-17T14:35:10.529Z,9.00
2018-10-17T14:37:37.980Z,9.47
2018-10-17T14:40:05.350Z,9.87
2018-10-17T14:42:32.748Z,9.70
2018-10-17T14:45:00.209Z,11.20
2018-10-17T14:47:27.650Z,9.70
2018-10-17T14:49:55.109Z,10.03
2018-10-17T14:52:22.548Z,10.03
2018-10-17T14:54:49.922Z,10.63
2018-10-17T14:57:17.363Z,9.60
2018-10-17T14:59:44.739Z,9.97
2018-10-17T15:02:12.093Z,10.33
2018-10-17T15:04:39.476Z,11.63
2018-10-17T15:07:07.396Z,10.27
2018-10-17T15:09:34.796Z,10.40
2018-10-17T15:12:02.453Z,9.90
2018-10-17T15:14:29.674Z,9.33
2018-10-17T15:16:57.141Z,10.13
2018-10-17T15:19:24.512Z,10.20
2018-10-17T15:21:51.955Z,10.50
2018-10-17T15:24:19.358Z,12.30
2018-10-17T15:26:46.738Z,10.30
2018-10-17T15:29:14.107Z,10.37
2018-10-17T15:31:41.557Z,10.03
2018-10-17T15:34:09.045Z,11.50
2018-10-17T15:36:36.410Z,11.07
2018-10-17T15:39:04.829Z,10.73
2018-10-17T15:41:32.165Z,10.07
2018-10-17T15:43:59.537Z,10.17
2018-10-17T15:46:26.915Z,11.50
2018-10-17T15:48:54.329Z,10.40
2018-10-17T15:51:21.737Z,11.17
2018-10-17T15:53:49.120Z,11.47
2018-10-17T15:56:16.668Z,11.37
2018-10-17T15:58:44.058Z,13.43
2018-10-17T16:01:11.525Z,12.80
2018-10-17T16:03:38.903Z,12.67
2018-10-17T16:06:06.472Z,12.67
2018-10-17T16:08:33.805Z,12.53
2018-10-17T16:11:01.214Z,13.80
2018-10-17T16:13:28.613Z,12.97
2018-10-17T16:15:55.982Z,12.40
2018-10-17T16:18:23.377Z,13.20
2018-10-17T16:20:50.748Z,11.93
2018-10-17T16:23:18.286Z,15.67
2018-10-17T16:25:45.723Z,12.07
2018-10-17T16:28:13.110Z,11.77
2018-10-17T16:30:40.533Z,13.50
2018-10-17T16:33:07.905Z,13.10
2018-10-17T16:35:35.327Z,14.40
2018-10-17T16:38:02.710Z,13.47
2018-10-17T16:40:30.126Z,13.83
2018-10-17T16:42:57.628Z,13.60
2018-10-17T16:45:25.054Z,14.03
2018-10-17T16:47:52.442Z,15.50
2018-10-17T16:50:20.343Z,15.67
2018-10-17T16:52:47.653Z,20.93
2018-10-17T16:55:15.085Z,14.40
2018-10-17T16:57:42.584Z,15.60
2018-10-17T17:00:11.205Z,16.00
2018-10-17T17:02:38.756Z,16.37
2018-10-17T17:05:07.685Z,16.57
2018-10-17T17:07:35.101Z,17.13
2018-10-17T17:10:02.591Z,17.67
2018-10-17T17:12:30.013Z,27.07
2018-10-17T17:14:57.497Z,19.67
2018-10-17T17:17:24.913Z,19.33
2018-10-17T17:19:52.398Z,19.60
2018-10-17T17:22:19.783Z,41.43
2018-10-17T17:24:47.205Z,51.93
2018-10-17T17:27:15.850Z,55.30
2018-10-17T17:29:43.407Z,37.03
2018-10-17T17:32:10.993Z,26.60
2018-10-17T17:34:38.428Z,20.27
2018-10-17T17:37:06.028Z,19.57
2018-10-17T17:39:33.454Z,22.13
2018-10-17T17:42:00.987Z,23.93
2018-10-17T17:44:28.561Z,20.73
2018-10-17T17:46:56.017Z,21.80
2018-10-17T17:49:23.449Z,21.43
2018-10-17T17:51:50.887Z,21.97
2018-10-17T17:54:18.334Z,20.97
2018-10-17T17:56:45.834Z,21.80
2018-10-17T17:59:13.309Z,21.97
2018-10-17T18:01:40.821Z,22.53
2018-10-17T18:04:08.294Z,22.37
2018-10-17T18:06:35.889Z,23.47
2018-10-17T18:09:03.922Z,23.23
2018-10-17T18:11:31.321Z,23.13
2018-10-17T18:13:59.186Z,23.07
2018-10-17T18:16:26.720Z,23.53
2018-10-17T18:18:54.192Z,25.33
2018-10-17T18:21:21.590Z,25.60
2018-10-17T18:23:49.024Z,25.23
2018-10-17T18:26:16.409Z,26.93
2018-10-17T18:28:43.902Z,25.67
2018-10-17T18:31:11.356Z,26.77
2018-10-17T18:33:38.881Z,27.27
2018-10-17T18:36:06.374Z,27.73
2018-10-17T18:38:33.797Z,27.83
2018-10-17T18:41:01.306Z,28.23
2018-10-17T18:43:28.758Z,29.33
2018-10-17T18:45:56.621Z,28.90
2018-10-17T18:48:24.572Z,28.53
2018-10-17T18:50:52.010Z,29.60
2018-10-17T18:53:20.205Z,30.60
2018-10-17T18:55:47.926Z,30.90
2018-10-17T18:58:15.657Z,32.00
2018-10-17T19:00:43.097Z,32.17
2018-10-17T19:03:10.665Z,32.30
2018-10-17T19:05:38.044Z,32.07
2018-10-17T19:08:05.492Z,33.33
2018-10-17T19:10:32.943Z,33.03
2018-10-17T19:13:00.388Z,33.13
2018-10-17T19:15:27.878Z,34.47
2018-10-17T19:17:55.399Z,33.87
2018-10-17T19:20:23.670Z,32.57
2018-10-17T19:22:51.114Z,33.73
2018-10-17T19:25:18.552Z,34.57
2018-10-17T19:27:45.981Z,34.43
2018-10-17T19:30:13.649Z,34.90
2018-10-17T19:32:41.037Z,36.40
2018-10-17T19:35:08.499Z,36.93
2018-10-17T19:37:36.081Z,38.67
2018-10-17T19:40:03.705Z,36.87
2018-10-17T19:42:31.128Z,36.10
2018-10-17T19:44:58.579Z,35.37
2018-10-17T19:47:26.426Z,35.97
2018-10-17T19:49:53.892Z,38.03
2018-10-17T19:52:21.362Z,37.60
2018-10-17T19:54:48.778Z,38.10
2018-10-17T19:57:16.410Z,37.30
2018-10-17T19:59:44.184Z,38.47
2018-10-17T20:02:11.741Z,37.87
2018-10-17T20:04:39.090Z,36.40
2018-10-17T20:07:06.628Z,38.43
2018-10-17T20:09:34.033Z,40.03
2018-10-17T20:12:01.565Z,39.43
2018-10-17T20:14:28.981Z,40.57
2018-10-17T20:16:56.386Z,41.03
2018-10-17T20:19:23.780Z,43.53
2018-10-17T20:21:51.306Z,43.83
2018-10-17T20:24:18.668Z,40.77
2018-10-17T20:26:46.079Z,43.17
2018-10-17T20:29:13.573Z,42.20
2018-10-17T20:31:41.145Z,44.40
2018-10-17T20:34:08.541Z,42.73
2018-10-17T20:36:35.943Z,44.00
2018-10-17T20:39:04.642Z,45.70
2018-10-17T20:41:32.153Z,45.87
2018-10-17T20:43:59.602Z,49.00
2018-10-17T20:46:27.101Z,47.87
2018-10-17T20:48:54.461Z,49.27
2018-10-17T20:51:21.985Z,49.97
2018-10-17T20:53:49.401Z,53.37
2018-10-17T20:56:16.906Z,51.63
2018-10-17T20:58:44.285Z,52.67
2018-10-17T21:01:11.669Z,50.57
2018-10-17T21:03:39.077Z,50.23
2018-10-17T21:06:06.512Z,52.00
2018-10-17T21:08:33.981Z,53.00
2018-10-17T21:11:01.405Z,53.47
2018-10-17T21:13:28.793Z,52.80
2018-10-17T21:15:56.267Z,52.37
2018-10-17T21:18:23.689Z,48.77
2018-10-17T21:20:51.082Z,50.17
2018-10-17T21:23:18.485Z,52.23
2018-10-17T21:25:45.880Z,49.13
2018-10-17T21:28:13.385Z,51.57
2018-10-17T21:30:40.781Z,48.37
2018-10-17T21:33:08.204Z,50.50
2018-10-17T21:35:35.625Z,52.23
2018-10-17T21:38:03.162Z,51.73
2018-10-17T21:40:30.649Z,50.87
2018-10-17T21:42:58.093Z,49.43
2018-10-17T21:45:25.482Z,51.27
2018-10-17T21:47:52.926Z,53.10
2018-10-17T21:50:20.344Z,51.70
2018-10-17T21:52:47.740Z,49.20
2018-10-17T21:55:15.121Z,49.10
2018-10-17T21:57:42.523Z,51.07
2018-10-17T22:00:10.922Z,50.67
2018-10-17T22:02:38.493Z,49.97
2018-10-17T22:05:06.621Z,48.23
2018-10-17T22:07:34.142Z,48.97
2018-10-17T22:10:01.538Z,47.57
2018-10-17T22:12:29.040Z,46.17
2018-10-17T22:14:56.418Z,44.17
2018-10-17T22:17:28.194Z,42.13
2018-10-17T22:19:55.937Z,40.87
2018-10-17T22:22:24.117Z,42.20
2018-10-17T22:24:51.946Z,41.20
2018-10-17T22:27:19.433Z,40.17
2018-10-17T22:29:46.830Z,41.43
2018-10-17T22:32:14.262Z,42.73
2018-10-17T22:34:41.741Z,42.23
2018-10-17T22:37:09.134Z,44.93
2018-10-17T22:39:36.597Z,46.57
2018-10-17T22:42:04.253Z,47.50
2018-10-17T22:51:17.302Z,49.80
2018-10-17T22:53:44.738Z,50.33
2018-10-17T22:56:12.129Z,51.13
2018-10-17T22:58:39.567Z,48.23
2018-10-17T23:01:07.140Z,48.90
2018-10-17T23:03:34.492Z,49.90
2018-10-17T23:06:01.897Z,49.70
2018-10-17T23:08:29.281Z,46.97
2018-10-17T23:10:56.649Z,45.60
2018-10-17T23:13:24.089Z,49.30
2018-10-17T23:15:51.465Z,51.10
2018-10-17T23:18:18.854Z,50.40
2018-10-17T23:20:46.253Z,48.60
2018-10-17T23:23:13.625Z,49.63
2018-10-17T23:25:41.101Z,48.60
2018-10-17T23:28:08.531Z,51.60
2018-10-17T23:30:35.928Z,49.70
2018-10-17T23:33:03.309Z,48.87
2018-10-17T23:35:31.553Z,52.30
2018-10-17T23:37:58.965Z,52.70
2018-10-17T23:40:26.451Z,55.00
2018-10-17T23:42:54.234Z,55.00
2018-10-17T23:45:21.591Z,54.67
2018-10-17T23:47:48.949Z,55.27
2018-10-17T23:50:16.419Z,50.87
2018-10-17T23:52:43.711Z,54.40
2018-10-17T23:55:11.064Z,51.73
2018-10-17T23:57:38.664Z,47.97
